createdAt,value
2023-10-26T00:01:26.426Z,100.00
2023-10-26T00:03:53.712Z,100.00
2023-10-26T00:06:21.294Z,100.00
2023-10-26T00:08:48.621Z,100.00
2023-10-26T00:11:15.904Z,100.00
2023-10-26T00:13:43.066Z,100.00
2023-10-26T00:16:10.187Z,100.00
2023-10-26T00:18:37.188Z,100.00
2023-10-26T00:21:04.525Z,100.00
2023-10-26T00:23:31.844Z,100.00
2023-10-26T00:25:58.855Z,100.00
2023-10-26T00:28:26.145Z,100.00
2023-10-26T00:30:53.063Z,100.00
2023-10-26T00:33:20.076Z,100.00
2023-10-26T00:35:47.538Z,100.00
2023-10-26T00:38:14.738Z,100.00
2023-10-26T00:40:42.010Z,100.00
2023-10-26T00:43:21.411Z,100.00
2023-10-26T00:45:52.524Z,100.00
2023-10-26T00:48:21.093Z,100.00
2023-10-26T00:50:49.775Z,100.00
2023-10-26T00:53:19.024Z,100.00
2023-10-26T00:55:50.542Z,100.00
2023-10-26T00:58:19.407Z,100.00
2023-10-26T01:00:46.500Z,100.00
2023-10-26T01:03:14.888Z,100.00
2023-10-26T01:05:42.450Z,100.00
2023-10-26T01:08:09.593Z,100.00
2023-10-26T01:10:36.847Z,100.00
2023-10-26T01:13:05.639Z,100.00
2023-10-26T01:15:32.601Z,100.00
2023-10-26T01:18:00.053Z,100.00
2023-10-26T01:20:27.159Z,100.00
2023-10-26T01:22:54.487Z,100.00
2023-10-26T01:25:21.736Z,100.00
2023-10-26T01:27:49.107Z,100.00
2023-10-26T01:30:18.296Z,100.00
2023-10-26T01:32:45.630Z,100.00
2023-10-26T01:35:12.628Z,100.00
2023-10-26T01:37:40.504Z,100.00
2023-10-26T01:40:09.666Z,100.00
2023-10-26T01:42:36.689Z,100.00
2023-10-26T01:45:04.049Z,100.00
2023-10-26T01:47:30.961Z,100.00
2023-10-26T01:49:58.218Z,100.00
2023-10-26T01:52:25.563Z,100.00
2023-10-26T01:54:52.517Z,100.00
2023-10-26T01:57:19.666Z,100.00
2023-10-26T01:59:46.894Z,100.00
2023-10-26T02:02:14.037Z,100.00
2023-10-26T02:04:41.225Z,100.00
2023-10-26T02:07:08.243Z,100.00
2023-10-26T02:09:35.480Z,100.00
2023-10-26T02:12:02.785Z,100.00
2023-10-26T02:14:29.820Z,100.00
2023-10-26T02:16:57.037Z,100.00
2023-10-26T02:19:24.018Z,100.00
2023-10-26T02:21:51.166Z,100.00
2023-10-26T02:24:18.339Z,100.00
2023-10-26T02:26:45.490Z,100.00
2023-10-26T02:29:12.810Z,100.00
2023-10-26T02:31:40.080Z,100.00
2023-10-26T02:34:07.031Z,100.00
2023-10-26T02:36:34.259Z,100.00
2023-10-26T02:39:01.420Z,100.00
2023-10-26T02:41:28.332Z,100.00
2023-10-26T02:43:55.532Z,100.00
2023-10-26T02:46:24.655Z,100.00
2023-10-26T02:48:51.624Z,100.00
2023-10-26T02:51:18.818Z,100.00
2023-10-26T02:53:46.076Z,100.00
2023-10-26T02:56:13.069Z,100.00
2023-10-26T02:58:40.268Z,100.00
2023-10-26T03:01:07.658Z,100.00
2023-10-26T03:03:34.718Z,100.00
2023-10-26T03:06:02.355Z,100.00
2023-10-26T03:08:29.619Z,100.00
2023-10-26T03:10:56.778Z,100.00
2023-10-26T03:13:23.862Z,100.00
2023-10-26T03:15:51.222Z,100.00
2023-10-26T03:18:18.446Z,100.00
2023-10-26T03:20:45.355Z,100.00
2023-10-26T03:23:12.927Z,100.00
2023-10-26T03:25:39.918Z,100.00
2023-10-26T03:28:06.879Z,100.00
2023-10-26T03:30:34.761Z,100.00
2023-10-26T03:33:02.184Z,100.00
2023-10-26T03:35:29.871Z,100.00
2023-10-26T03:37:57.181Z,100.00
2023-10-26T03:40:24.348Z,100.00
2023-10-26T03:42:51.621Z,100.00
2023-10-26T03:45:18.749Z,100.00
2023-10-26T03:47:45.775Z,100.00
2023-10-26T03:50:13.615Z,100.00
2023-10-26T03:52:40.543Z,100.00
2023-10-26T03:55:08.140Z,100.00
2023-10-26T03:57:35.129Z,100.00
2023-10-26T04:00:04.398Z,100.00
2023-10-26T04:02:31.737Z,100.00
2023-10-26T04:04:59.065Z,100.00
2023-10-26T04:07:26.306Z,100.00
2023-10-26T04:09:53.575Z,100.00
2023-10-26T04:12:20.772Z,100.00
2023-10-26T04:14:48.229Z,100.00
2023-10-26T04:17:16.871Z,100.00
2023-10-26T04:19:44.191Z,100.00
2023-10-26T04:22:11.085Z,100.00
2023-10-26T04:24:38.592Z,100.00
2023-10-26T04:27:05.975Z,100.00
2023-10-26T04:29:33.038Z,100.00
2023-10-26T04:32:00.132Z,100.00
2023-10-26T04:34:29.563Z,100.00
2023-10-26T04:36:57.021Z,100.00
2023-10-26T04:39:23.995Z,100.00
2023-10-26T04:41:51.547Z,100.00
2023-10-26T04:44:19.929Z,100.00
2023-10-26T04:46:47.108Z,100.00
2023-10-26T04:49:14.076Z,100.00
2023-10-26T04:51:41.288Z,100.00
2023-10-26T04:54:08.523Z,100.00
2023-10-26T04:56:35.635Z,100.00
2023-10-26T04:59:03.152Z,100.00
2023-10-26T05:01:30.408Z,100.00
2023-10-26T05:03:57.884Z,100.00
2023-10-26T05:06:25.204Z,100.00
2023-10-26T05:08:52.645Z,100.00
2023-10-26T05:11:20.668Z,100.00
2023-10-26T05:13:49.330Z,100.00
2023-10-26T05:16:16.398Z,100.00
2023-10-26T05:18:43.671Z,100.00
2023-10-26T05:21:10.933Z,100.00
2023-10-26T05:23:40.951Z,100.00
2023-10-26T05:26:08.249Z,100.00
2023-10-26T05:28:35.397Z,100.00
2023-10-26T05:31:02.362Z,100.00
2023-10-26T05:33:29.603Z,100.00
2023-10-26T05:35:57.746Z,100.00
2023-10-26T05:38:25.203Z,100.00
2023-10-26T05:40:58.453Z,100.00
2023-10-26T05:43:25.758Z,100.00
2023-10-26T05:45:53.891Z,100.00
2023-10-26T05:48:21.031Z,100.00
2023-10-26T05:50:48.066Z,100.00
2023-10-26T05:53:15.298Z,100.00
2023-10-26T05:55:42.415Z,100.00
2023-10-26T05:58:12.255Z,100.00
2023-10-26T06:00:39.901Z,100.00
2023-10-26T06:03:07.566Z,100.00
2023-10-26T06:05:35.034Z,100.00
2023-10-26T06:08:01.994Z,100.00
2023-10-26T06:10:29.020Z,100.00
2023-10-26T06:12:56.138Z,100.00
2023-10-26T06:15:24.145Z,100.00
2023-10-26T06:17:52.030Z,100.00
2023-10-26T06:20:19.305Z,100.00
2023-10-26T06:22:46.415Z,100.00
2023-10-26T06:25:13.676Z,100.00
2023-10-26T06:27:40.852Z,100.00
2023-10-26T06:30:08.700Z,100.00
2023-10-26T06:32:36.814Z,100.00
2023-10-26T06:35:05.355Z,100.00
2023-10-26T06:37:32.297Z,100.00
2023-10-26T06:39:59.275Z,100.00
2023-10-26T06:42:26.439Z,100.00
2023-10-26T06:44:53.693Z,100.00
2023-10-26T06:47:20.925Z,100.00
2023-10-26T06:49:48.505Z,100.00
2023-10-26T06:52:15.938Z,100.00
2023-10-26T06:54:43.676Z,100.00
2023-10-26T06:57:11.167Z,100.00
2023-10-26T06:59:38.219Z,100.00
2023-10-26T07:02:09.427Z,100.00
2023-10-26T07:04:39.516Z,100.00
2023-10-26T07:07:06.975Z,100.00
2023-10-26T07:09:33.936Z,100.00
2023-10-26T07:12:01.099Z,100.00
2023-10-26T07:14:28.389Z,100.00
2023-10-26T07:16:57.125Z,100.00
2023-10-26T07:19:24.291Z,100.00
2023-10-26T07:21:51.503Z,100.00
2023-10-26T07:24:18.766Z,100.00
2023-10-26T07:26:46.332Z,100.00
2023-10-26T07:29:13.627Z,100.00
2023-10-26T07:31:41.020Z,100.00
2023-10-26T07:34:08.376Z,100.00
2023-10-26T07:36:35.709Z,100.00
2023-10-26T07:39:44.382Z,100.00
2023-10-26T07:44:38.891Z,100.00
2023-10-26T07:47:12.864Z,100.00
2023-10-26T07:49:46.229Z,100.00
2023-10-26T07:52:13.418Z,100.00
2023-10-26T07:54:40.608Z,100.00
2023-10-26T07:57:07.981Z,100.00
2023-10-26T07:59:34.948Z,100.00
2023-10-26T08:02:02.813Z,100.00
2023-10-26T08:04:33.764Z,100.00
2023-10-26T08:07:01.842Z,100.00
2023-10-26T08:09:35.326Z,100.00
2023-10-26T08:12:02.637Z,100.00
2023-10-26T08:16:29.494Z,100.00
2023-10-26T08:17:18.814Z,100.00
2023-10-26T08:19:46.124Z,100.00
2023-10-26T08:22:13.883Z,100.00
2023-10-26T08:24:41.057Z,100.00
2023-10-26T08:27:08.537Z,100.00
2023-10-26T08:29:35.737Z,100.00
2023-10-26T08:32:04.961Z,100.00
2023-10-26T08:34:32.775Z,100.00
2023-10-26T08:37:13.096Z,100.00
2023-10-26T08:39:41.719Z,100.00
2023-10-26T08:42:10.009Z,100.00
2023-10-26T08:44:39.000Z,100.00
2023-10-26T08:47:07.168Z,100.00
2023-10-26T08:49:34.333Z,100.00
2023-10-26T08:52:01.610Z,100.00
2023-10-26T08:54:29.091Z,100.00
2023-10-26T08:56:56.544Z,100.00
2023-10-26T08:59:26.447Z,100.00
2023-10-26T09:01:54.143Z,100.00
2023-10-26T09:04:21.693Z,100.00
2023-10-26T09:06:50.367Z,100.00
2023-10-26T09:09:19.881Z,100.00
2023-10-26T09:11:49.354Z,100.00
2023-10-26T09:14:17.609Z,100.00
2023-10-26T09:16:46.736Z,100.00
2023-10-26T09:19:16.336Z,100.00
2023-10-26T09:21:57.700Z,100.00
2023-10-26T09:24:30.528Z,100.00
2023-10-26T09:27:00.620Z,100.00
2023-10-26T09:29:41.957Z,100.00
2023-10-26T09:32:10.851Z,100.00
2023-10-26T09:34:46.636Z,100.00
2023-10-26T09:37:13.900Z,100.00
2023-10-26T09:39:43.057Z,100.00
2023-10-26T09:42:13.517Z,100.00
2023-10-26T09:44:40.626Z,100.00
2023-10-26T09:47:08.319Z,100.00
2023-10-26T09:49:35.838Z,100.00
2023-10-26T09:52:03.504Z,100.00
2023-10-26T09:54:38.377Z,100.00
2023-10-26T09:57:14.467Z,100.00
2023-10-26T09:59:42.961Z,100.00
2023-10-26T10:02:17.568Z,100.00
2023-10-26T10:04:45.844Z,100.00
2023-10-26T10:07:41.977Z,100.00
2023-10-26T10:10:12.405Z,100.00
2023-10-26T10:12:40.774Z,100.00
2023-10-26T10:15:36.122Z,100.00
2023-10-26T10:17:59.864Z,100.00
2023-10-26T10:20:29.142Z,100.00
2023-10-26T10:23:00.037Z,100.00
2023-10-26T10:25:50.408Z,100.00
2023-10-26T10:28:19.777Z,100.00
2023-10-26T10:30:59.310Z,100.00
2023-10-26T10:33:28.981Z,100.00
2023-10-26T10:36:04.265Z,100.00
2023-10-26T10:38:32.621Z,100.00
2023-10-26T10:41:11.623Z,100.00
2023-10-26T10:43:42.024Z,100.00
2023-10-26T10:46:12.029Z,100.00
2023-10-26T10:48:57.067Z,100.00
2023-10-26T10:51:38.097Z,100.00
2023-10-26T10:54:20.293Z,100.00
2023-10-26T10:56:54.416Z,100.00
2023-10-26T10:59:31.713Z,100.00
2023-10-26T11:02:08.621Z,100.00
2023-10-26T11:04:41.919Z,100.00
2023-10-26T11:07:18.432Z,100.00
2023-10-26T11:09:47.534Z,100.00
2023-10-26T11:12:14.677Z,100.00
2023-10-26T11:14:51.092Z,90.65
2023-10-26T11:17:19.325Z,95.52
2023-10-26T11:19:46.742Z,84.82
2023-10-26T11:22:17.695Z,72.00
2023-10-26T11:24:46.499Z,72.66
2023-10-26T11:27:15.712Z,68.87
2023-10-26T11:29:44.602Z,64.78
2023-10-26T11:32:22.699Z,62.02
2023-10-26T11:35:07.496Z,61.95
2023-10-26T11:37:41.792Z,54.98
2023-10-26T11:40:11.533Z,56.70
2023-10-26T11:43:02.414Z,53.22
2023-10-26T11:45:30.951Z,48.27
2023-10-26T11:48:00.482Z,48.77
2023-10-26T11:50:29.727Z,51.37
2023-10-26T11:52:58.899Z,49.21
2023-10-26T11:55:27.632Z,48.61
2023-10-26T11:57:58.401Z,47.45
2023-10-26T12:00:27.595Z,47.95
2023-10-26T12:02:59.331Z,48.46
2023-10-26T12:05:27.618Z,45.14
2023-10-26T12:07:55.957Z,45.83
2023-10-26T12:10:24.848Z,43.43
2023-10-26T12:12:54.288Z,43.36
2023-10-26T12:15:22.637Z,42.31
2023-10-26T12:17:50.153Z,44.03
2023-10-26T12:20:18.092Z,42.29
2023-10-26T12:22:46.026Z,40.25
2023-10-26T12:25:13.719Z,41.81
2023-10-26T12:28:20.132Z,42.84
2023-10-26T12:30:28.352Z,44.72
2023-10-26T12:32:55.625Z,42.88
2023-10-26T12:35:24.706Z,46.61
2023-10-26T12:37:52.666Z,44.30
2023-10-26T12:40:21.713Z,44.82
2023-10-26T12:42:49.206Z,46.82
2023-10-26T12:45:18.952Z,48.37
2023-10-26T12:47:46.496Z,51.03
2023-10-26T12:50:13.711Z,52.26
2023-10-26T12:52:41.028Z,53.12
2023-10-26T12:55:08.595Z,50.19
2023-10-26T12:57:35.787Z,49.78
2023-10-26T13:00:04.353Z,50.43
2023-10-26T13:02:31.726Z,50.42
2023-10-26T13:04:58.666Z,51.56
2023-10-26T13:07:28.317Z,50.60
2023-10-26T13:09:55.246Z,50.34
2023-10-26T13:12:22.246Z,56.62
2023-10-26T13:14:51.204Z,53.49
2023-10-26T13:17:27.493Z,52.81
2023-10-26T13:19:54.525Z,53.06
2023-10-26T13:22:21.433Z,53.50
2023-10-26T13:24:48.640Z,54.56
2023-10-26T13:27:15.737Z,55.71
2023-10-26T13:29:42.879Z,56.52
2023-10-26T13:32:10.256Z,55.67
2023-10-26T13:34:37.539Z,54.60
2023-10-26T13:37:04.567Z,55.03
2023-10-26T13:39:31.565Z,53.03
2023-10-26T13:41:58.649Z,50.30
2023-10-26T13:44:25.625Z,49.20
2023-10-26T13:46:52.803Z,46.91
2023-10-26T13:49:20.138Z,49.90
2023-10-26T13:51:47.371Z,51.78
2023-10-26T13:54:14.349Z,53.37
2023-10-26T13:56:41.448Z,55.27
2023-10-26T13:59:08.637Z,58.79
2023-10-26T14:01:35.869Z,59.03
2023-10-26T14:04:02.894Z,59.69
2023-10-26T14:06:30.658Z,61.05
2023-10-26T14:08:59.530Z,61.92
2023-10-26T14:11:28.080Z,62.60
2023-10-26T14:13:56.215Z,61.82
2023-10-26T14:16:24.445Z,62.07
2023-10-26T14:18:51.504Z,62.64
2023-10-26T14:21:18.451Z,63.87
2023-10-26T14:23:45.370Z,64.28
2023-10-26T14:26:13.170Z,65.05
2023-10-26T14:28:40.714Z,65.81
2023-10-26T14:31:07.725Z,67.03
2023-10-26T14:33:34.812Z,68.42
2023-10-26T14:36:02.146Z,68.77
2023-10-26T14:38:29.399Z,69.88
2023-10-26T14:40:58.917Z,71.48
2023-10-26T14:43:26.541Z,73.80
2023-10-26T14:45:53.469Z,73.23
2023-10-26T14:48:21.214Z,75.46
2023-10-26T14:50:48.522Z,76.77
2023-10-26T14:53:16.038Z,78.81
2023-10-26T14:55:43.061Z,81.41
2023-10-26T14:58:10.673Z,82.03
2023-10-26T15:00:39.732Z,83.61
2023-10-26T15:03:07.324Z,85.98
2023-10-26T15:05:35.693Z,86.73
2023-10-26T15:08:03.678Z,88.28
2023-10-26T15:10:36.561Z,90.24
2023-10-26T15:13:05.755Z,90.13
2023-10-26T15:15:33.173Z,92.99
2023-10-26T15:18:00.483Z,93.57
2023-10-26T15:20:27.645Z,100.00
2023-10-26T15:22:54.736Z,100.00
2023-10-26T15:25:22.096Z,100.00
2023-10-26T15:27:49.395Z,100.00
2023-10-26T15:30:19.005Z,100.00
2023-10-26T15:32:48.548Z,100.00
2023-10-26T15:35:15.957Z,100.00
2023-10-26T15:37:42.913Z,100.00
2023-10-26T15:40:12.990Z,100.00
2023-10-26T15:42:40.008Z,100.00
2023-10-26T15:45:07.587Z,100.00
2023-10-26T15:47:34.812Z,100.00
2023-10-26T15:50:01.849Z,100.00
2023-10-26T15:52:36.390Z,100.00
2023-10-26T15:55:03.956Z,100.00
2023-10-26T15:57:33.887Z,100.00
2023-10-26T16:00:01.860Z,100.00
2023-10-26T16:02:28.881Z,100.00
2023-10-26T16:04:56.298Z,100.00
2023-10-26T16:07:23.557Z,100.00
2023-10-26T16:09:50.719Z,100.00
2023-10-26T16:12:18.743Z,100.00
2023-10-26T16:14:46.190Z,100.00
2023-10-26T16:17:13.392Z,100.00
2023-10-26T16:19:40.595Z,100.00
2023-10-26T16:22:09.403Z,100.00
2023-10-26T16:24:38.152Z,100.00
2023-10-26T16:27:05.522Z,100.00
2023-10-26T16:29:32.484Z,100.00
2023-10-26T16:31:59.559Z,100.00
2023-10-26T16:34:26.555Z,100.00
2023-10-26T16:36:54.152Z,100.00
2023-10-26T16:39:21.640Z,100.00
2023-10-26T16:41:49.005Z,100.00
2023-10-26T16:44:17.208Z,100.00
2023-10-26T16:46:44.697Z,100.00
2023-10-26T16:49:12.014Z,100.00
2023-10-26T16:51:39.590Z,100.00
2023-10-26T16:54:07.172Z,100.00
2023-10-26T16:56:34.674Z,100.00
2023-10-26T16:59:01.973Z,100.00
2023-10-26T17:01:30.120Z,100.00
2023-10-26T17:03:59.504Z,100.00
2023-10-26T17:06:28.822Z,100.00
2023-10-26T17:08:56.014Z,100.00
2023-10-26T17:11:23.832Z,100.00
2023-10-26T17:13:51.450Z,100.00
2023-10-26T17:16:19.671Z,100.00
2023-10-26T17:18:47.809Z,100.00
2023-10-26T17:21:15.596Z,100.00
2023-10-26T17:23:43.192Z,100.00
2023-10-26T17:26:14.299Z,100.00
2023-10-26T17:28:42.268Z,100.00
2023-10-26T17:31:10.000Z,100.00
2023-10-26T17:33:38.801Z,100.00
2023-10-26T17:36:07.128Z,100.00
2023-10-26T17:38:35.121Z,100.00
2023-10-26T17:41:17.440Z,100.00
2023-10-26T17:43:45.841Z,100.00
2023-10-26T17:46:17.313Z,100.00
2023-10-26T17:48:45.872Z,100.00
2023-10-26T17:51:13.677Z,100.00
2023-10-26T17:53:43.186Z,100.00
2023-10-26T17:56:13.786Z,100.00
2023-10-26T17:58:42.804Z,100.00
2023-10-26T18:01:12.583Z,100.00
2023-10-26T18:03:43.163Z,100.00
2023-10-26T18:06:10.772Z,100.00
2023-10-26T18:08:41.537Z,100.00
2023-10-26T18:11:10.122Z,100.00
2023-10-26T18:13:39.395Z,100.00
2023-10-26T18:16:09.568Z,100.00
2023-10-26T18:18:41.362Z,100.00
2023-10-26T18:21:10.158Z,100.00
2023-10-26T18:23:41.741Z,100.00
2023-10-26T18:26:11.827Z,100.00
2023-10-26T18:28:42.151Z,100.00
2023-10-26T18:31:15.363Z,100.00
2023-10-26T18:33:50.808Z,100.00
2023-10-26T18:36:21.703Z,100.00
2023-10-26T18:38:50.198Z,100.00
2023-10-26T18:41:23.602Z,100.00
2023-10-26T18:43:54.965Z,100.00
2023-10-26T18:46:23.674Z,100.00
2023-10-26T18:48:51.664Z,100.00
2023-10-26T18:51:20.103Z,100.00
2023-10-26T18:53:47.343Z,100.00
2023-10-26T18:56:26.282Z,100.00
2023-10-26T18:58:54.387Z,100.00
2023-10-26T19:01:27.334Z,100.00
2023-10-26T19:06:27.257Z,100.00
2023-10-26T19:08:55.095Z,100.00
2023-10-26T19:11:22.790Z,100.00
2023-10-26T19:13:51.363Z,100.00
2023-10-26T19:16:20.007Z,100.00
2023-10-26T19:18:47.716Z,100.00
2023-10-26T19:21:15.963Z,100.00
2023-10-26T19:23:46.488Z,100.00
2023-10-26T19:26:16.118Z,100.00
2023-10-26T19:28:44.492Z,100.00
2023-10-26T19:31:14.250Z,100.00
2023-10-26T19:33:43.846Z,100.00
2023-10-26T19:36:12.588Z,100.00
2023-10-26T19:38:41.359Z,100.00
2023-10-26T19:41:16.085Z,100.00
2023-10-26T19:43:44.283Z,100.00
2023-10-26T19:46:13.266Z,100.00
2023-10-26T19:48:44.288Z,100.00
2023-10-26T19:51:15.762Z,100.00
2023-10-26T19:53:46.658Z,100.00
2023-10-26T19:56:16.527Z,100.00
2023-10-26T19:58:46.003Z,100.00
2023-10-26T20:01:16.917Z,100.00
2023-10-26T20:03:44.754Z,100.00
2023-10-26T20:06:12.859Z,100.00
2023-10-26T20:08:41.040Z,100.00
2023-10-26T20:11:12.320Z,100.00
2023-10-26T20:13:42.200Z,100.00
2023-10-26T20:16:10.022Z,100.00
2023-10-26T20:18:41.899Z,100.00
2023-10-26T20:21:10.977Z,100.00
2023-10-26T20:23:38.718Z,100.00
2023-10-26T20:26:06.317Z,100.00
2023-10-26T20:28:33.956Z,100.00
2023-10-26T20:31:01.649Z,100.00
2023-10-26T20:33:28.987Z,100.00
2023-10-26T20:35:56.786Z,100.00
2023-10-26T20:38:24.550Z,100.00
2023-10-26T20:40:52.112Z,100.00
2023-10-26T20:43:19.949Z,100.00
2023-10-26T20:45:47.704Z,100.00
2023-10-26T20:48:15.374Z,100.00
2023-10-26T20:50:42.691Z,100.00
2023-10-26T20:53:09.686Z,100.00
2023-10-26T20:55:36.876Z,100.00
2023-10-26T20:58:04.428Z,100.00
2023-10-26T21:00:31.686Z,100.00
2023-10-26T21:02:58.916Z,100.00
2023-10-26T21:05:26.102Z,100.00
2023-10-26T21:07:53.587Z,100.00
2023-10-26T21:10:20.612Z,100.00
2023-10-26T21:12:47.688Z,100.00
2023-10-26T21:15:14.872Z,100.00
2023-10-26T21:17:42.283Z,100.00
2023-10-26T21:20:10.040Z,100.00
2023-10-26T21:22:37.536Z,100.00
2023-10-26T21:25:05.937Z,100.00
2023-10-26T21:27:33.221Z,100.00
2023-10-26T21:30:00.426Z,100.00
2023-10-26T21:32:27.877Z,100.00
2023-10-26T21:34:55.208Z,100.00
2023-10-26T21:37:22.167Z,100.00
2023-10-26T21:39:49.326Z,100.00
2023-10-26T21:42:17.357Z,100.00
2023-10-26T21:44:44.247Z,100.00
2023-10-26T21:47:11.235Z,100.00
2023-10-26T21:49:38.390Z,100.00
2023-10-26T21:52:05.984Z,100.00
2023-10-26T21:54:33.146Z,100.00
2023-10-26T21:57:00.470Z,100.00
2023-10-26T21:59:27.427Z,100.00
2023-10-26T22:01:54.658Z,100.00
2023-10-26T22:04:23.176Z,100.00
2023-10-26T22:06:51.870Z,100.00
2023-10-26T22:09:22.153Z,100.00
2023-10-26T22:11:49.316Z,100.00
2023-10-26T22:14:16.543Z,100.00
2023-10-26T22:16:44.220Z,100.00
2023-10-26T22:19:11.628Z,100.00
2023-10-26T22:21:39.025Z,100.00
2023-10-26T22:24:07.868Z,100.00
2023-10-26T22:26:34.771Z,100.00
2023-10-26T22:29:01.828Z,100.00
2023-10-26T22:31:29.529Z,100.00
2023-10-26T22:33:56.765Z,100.00
2023-10-26T22:36:23.923Z,100.00
2023-10-26T22:38:51.140Z,100.00
2023-10-26T22:41:18.136Z,100.00
2023-10-26T22:43:45.134Z,100.00
2023-10-26T22:46:12.145Z,100.00
2023-10-26T22:48:39.614Z,100.00
2023-10-26T22:51:06.708Z,100.00
2023-10-26T22:53:34.094Z,100.00
2023-10-26T22:56:02.971Z,100.00
2023-10-26T22:58:30.178Z,100.00
2023-10-26T23:00:57.403Z,100.00
2023-10-26T23:03:24.693Z,100.00
2023-10-26T23:05:57.834Z,100.00
2023-10-26T23:08:24.842Z,100.00
2023-10-26T23:10:51.824Z,100.00
2023-10-26T23:13:19.050Z,100.00
2023-10-26T23:15:46.602Z,100.00
2023-10-26T23:18:13.925Z,100.00
2023-10-26T23:20:41.087Z,100.00
2023-10-26T23:23:08.643Z,100.00
2023-10-26T23:25:45.469Z,100.00
2023-10-26T23:28:13.108Z,100.00
2023-10-26T23:30:40.509Z,100.00
2023-10-26T23:33:08.532Z,100.00
2023-10-26T23:35:39.349Z,100.00
2023-10-26T23:38:06.280Z,100.00
2023-10-26T23:40:33.349Z,100.00
2023-10-26T23:43:01.293Z,100.00
2023-10-26T23:45:29.316Z,100.00
2023-10-26T23:47:56.619Z,100.00
2023-10-26T23:50:23.902Z,100.00
2023-10-26T23:52:51.265Z,100.00
2023-10-26T23:55:18.220Z,100.00
2023-10-26T23:57:45.735Z,100.00
